Menai Bridge, United Kingdom
Current Conditions -  °F | °C
As of 7:50 PM on Saturday 25 Oct 2014 (Local Time) from EGOV Reporting Station
Broken Clouds Broken Clouds  
Wind Chill: 57°   Ceiling: 5000
Heat Index: 57°   Visibility: 6mi
Dew Point: 50°   Wind: 29mph
Humidity: 77%   Direction: 220°SW
Pressure: 29.94"   Gusts: NA
Location:  53.23°N, 4.17°W
Report Text: EGOV 251850Z AUTO 22025KT 9999 BKN050/// 14/10 Q1014
Loading
Personal Weather Stations






























Interactive Weather Map
Tropical Storm Tracking
New forecast layout! Learn more

10-Day Weather Forecast

Advertisements
Track Severe Weather on mobile